createdAt,value
2019-01-09T00:33:09.578Z,38.5
2019-01-09T00:33:59.282Z,38.5
2019-01-09T00:34:50.245Z,38.5
2019-01-09T00:35:42.655Z,38.5
2019-01-09T00:36:30.265Z,38.5
2019-01-09T00:37:19.491Z,38.5
2019-01-09T00:38:09.839Z,38.5
2019-01-09T00:39:00.178Z,38.5
2019-01-09T00:39:49.731Z,38.5
2019-01-09T00:40:39.430Z,38.4
2019-01-09T00:41:30.382Z,38.5
2019-01-09T00:42:20.165Z,38.4
2019-01-09T00:43:10.797Z,38.4
2019-01-09T00:44:00.479Z,38.4
2019-01-09T00:44:50.809Z,38.4
2019-01-09T00:45:40.602Z,38.4
2019-01-09T00:46:30.937Z,38.4
2019-01-09T00:47:20.124Z,38.4
2019-01-09T00:48:11.319Z,38.4
2019-01-09T00:49:00.316Z,38.4
2019-01-09T00:49:50.624Z,38.4
2019-01-09T00:50:39.832Z,38.4
2019-01-09T00:51:30.442Z,38.4
2019-01-09T00:52:21.043Z,38.4
2019-01-09T00:53:10.553Z,38.4
2019-01-09T00:54:00.649Z,38.4
2019-01-09T00:54:50.966Z,38.4
2019-01-09T00:55:40.484Z,38.4
2019-01-09T00:56:31.324Z,38.3
2019-01-09T00:57:20.571Z,38.3
2019-01-09T00:58:11.516Z,38.3
2019-01-09T00:59:00.457Z,38.3
2019-01-09T00:59:51.274Z,38.3
2019-01-09T01:00:41.431Z,38.3
2019-01-09T01:01:31.386Z,38.3
2019-01-09T01:02:22.094Z,38.3
2019-01-09T01:03:11.308Z,38.3
2019-01-09T01:04:02.240Z,38.3
2019-01-09T01:04:51.620Z,38.3
2019-01-09T01:05:50.320Z,38.3
2019-01-09T01:06:31.430Z,38.3
2019-01-09T01:07:22.058Z,38.3
2019-01-09T01:08:12.398Z,38.3
2019-01-09T01:09:01.743Z,38.3
2019-01-09T01:09:52.555Z,38.3
2019-01-09T01:10:42.550Z,38.3
2019-01-09T01:11:32.043Z,38.3
2019-01-09T01:12:22.489Z,38.2
2019-01-09T01:13:11.637Z,38.3
2019-01-09T01:14:02.202Z,38.2
2019-01-09T01:14:52.335Z,38.2
2019-01-09T01:15:42.037Z,38.2
2019-01-09T01:16:32.672Z,38.2
2019-01-09T01:17:22.195Z,38.2
2019-01-09T01:18:12.889Z,38.2
2019-01-09T01:19:02.842Z,38.2
2019-01-09T01:19:53.275Z,38.2
2019-01-09T01:20:42.674Z,38.2
2019-01-09T01:21:32.718Z,38.2
2019-01-09T01:22:22.609Z,38.2
2019-01-09T01:23:13.040Z,38.2
2019-01-09T01:24:03.003Z,38.1
2019-01-09T01:24:52.689Z,38.1
2019-01-09T01:25:42.762Z,38.1
2019-01-09T01:26:32.804Z,38.1
2019-01-09T01:27:22.881Z,38.1
2019-01-09T01:28:13.454Z,38.1
2019-01-09T01:29:03.287Z,38.1
2019-01-09T01:29:53.279Z,38.1
2019-01-09T01:30:43.347Z,38.1
2019-01-09T01:31:33.964Z,38.1
2019-01-09T01:32:23.458Z,38.1
2019-01-09T01:33:13.807Z,38.1
2019-01-09T01:34:04.142Z,38.1
2019-01-09T01:34:53.986Z,38.1
2019-01-09T01:35:44.226Z,38.1
2019-01-09T01:36:33.253Z,38.1
2019-01-09T01:37:23.794Z,38.1
2019-01-09T01:38:14.423Z,38.1
2019-01-09T01:39:03.924Z,38.1
2019-01-09T01:39:54.858Z,38
2019-01-09T01:40:44.272Z,38.1
2019-01-09T01:41:34.341Z,38
2019-01-09T01:42:24.948Z,38
2019-01-09T01:43:14.178Z,38
2019-01-09T01:44:04.806Z,38
2019-01-09T01:44:54.841Z,38
2019-01-09T01:45:44.721Z,38
2019-01-09T01:46:33.649Z,38
2019-01-09T01:47:24.448Z,37.9
2019-01-09T01:48:14.280Z,38
2019-01-09T01:49:04.584Z,38
2019-01-09T01:49:55.191Z,37.9
2019-01-09T01:50:44.990Z,37.9
2019-01-09T01:51:35.292Z,37.9
2019-01-09T01:52:25.626Z,37.9
2019-01-09T01:53:14.932Z,37.9
2019-01-09T01:54:04.453Z,37.9
2019-01-09T01:54:55.633Z,37.9
2019-01-09T01:55:45.578Z,37.9
2019-01-09T01:56:35.677Z,37.9
2019-01-09T01:57:25.680Z,37.9
2019-01-09T01:58:14.653Z,37.9
2019-01-09T01:59:05.890Z,37.9
2019-01-09T01:59:55.115Z,37.9
2019-01-09T02:00:45.360Z,37.9
2019-01-09T02:01:36.030Z,37.9
2019-01-09T02:02:25.860Z,37.9
2019-01-09T02:03:15.541Z,37.9
2019-01-09T02:04:05.301Z,37.9
2019-01-09T02:04:56.193Z,37.9
2019-01-09T02:05:45.405Z,37.9
2019-01-09T02:06:35.787Z,37.9
2019-01-09T02:07:26.342Z,38
2019-01-09T02:08:16.406Z,38
2019-01-09T02:09:05.369Z,38.1
2019-01-09T02:09:56.517Z,38.1
2019-01-09T02:10:46.111Z,38.2
2019-01-09T02:11:35.547Z,38.3
2019-01-09T02:12:26.407Z,38.3
2019-01-09T02:13:16.187Z,38.4
2019-01-09T02:14:06.527Z,38.4
2019-01-09T02:14:56.586Z,38.5
2019-01-09T02:15:46.922Z,38.6
2019-01-09T02:16:36.966Z,38.6
2019-01-09T02:17:26.202Z,38.8
2019-01-09T02:18:16.551Z,38.8
2019-01-09T02:19:07.156Z,38.9
2019-01-09T02:19:56.674Z,38.9
2019-01-09T02:20:46.421Z,39.1
2019-01-09T02:21:37.154Z,39.1
2019-01-09T02:22:27.085Z,39.3
2019-01-09T02:23:16.856Z,39.3
2019-01-09T02:24:06.908Z,39.4
2019-01-09T02:24:57.084Z,39.6
2019-01-09T02:25:46.531Z,39.6
2019-01-09T02:26:37.098Z,39.7
2019-01-09T02:27:27.239Z,39.8
2019-01-09T02:28:17.480Z,39.8
2019-01-09T02:29:07.543Z,39.8
2019-01-09T02:29:57.038Z,39.9
2019-01-09T02:30:47.181Z,39.9
2019-01-09T02:31:38.124Z,39.9
2019-01-09T02:32:26.944Z,39.9
2019-01-09T02:33:17.961Z,39.9
2019-01-09T02:34:08.502Z,39.9
2019-01-09T02:34:57.402Z,40
2019-01-09T02:35:47.486Z,40.1
2019-01-09T02:36:38.068Z,40.1
2019-01-09T02:37:28.080Z,40.1
2019-01-09T02:38:18.219Z,40.1
2019-01-09T02:39:08.890Z,40.2
2019-01-09T02:39:58.580Z,40.3
2019-01-09T02:40:48.918Z,40.3
2019-01-09T02:41:38.151Z,40.3
2019-01-09T02:42:28.442Z,40.3
2019-01-09T02:43:18.225Z,40.3
2019-01-09T02:44:08.562Z,40.3
2019-01-09T02:44:58.930Z,40.3
2019-01-09T02:45:48.415Z,40.3
2019-01-09T02:46:38.195Z,40.3
2019-01-09T02:47:29.463Z,40.4
2019-01-09T02:48:18.916Z,40.4
2019-01-09T02:49:09.201Z,40.4
2019-01-09T02:49:58.148Z,40.4
2019-01-09T02:50:49.152Z,40.5
2019-01-09T02:51:37.693Z,40.5
2019-01-09T02:52:29.199Z,40.5
2019-01-09T02:53:19.467Z,40.5
2019-01-09T02:54:08.440Z,40.6
2019-01-09T02:54:59.419Z,40.6
2019-01-09T02:55:48.845Z,40.5
2019-01-09T02:56:39.134Z,40.5
2019-01-09T02:57:30.022Z,40.6
2019-01-09T02:58:20.062Z,40.6
2019-01-09T02:59:09.498Z,40.6
2019-01-09T02:59:59.904Z,40.6
2019-01-09T03:00:49.985Z,40.6
2019-01-09T03:01:39.264Z,40.6
2019-01-09T03:02:30.114Z,40.6
2019-01-09T03:03:19.577Z,40.7
2019-01-09T03:04:10.242Z,40.7
2019-01-09T03:05:00.507Z,40.7
2019-01-09T03:05:49.481Z,40.8
2019-01-09T03:06:40.082Z,40.8
2019-01-09T03:07:30.442Z,40.7
2019-01-09T03:08:20.626Z,40.8
2019-01-09T03:09:10.053Z,40.8
2019-01-09T03:10:00.336Z,40.8
2019-01-09T03:10:50.613Z,40.8
2019-01-09T03:11:40.747Z,40.8
2019-01-09T03:12:30.471Z,40.7
2019-01-09T03:13:20.250Z,40.8
2019-01-09T03:14:10.350Z,40.8
2019-01-09T03:15:00.933Z,40.8
2019-01-09T03:15:50.490Z,40.8
2019-01-09T03:16:40.946Z,40.8
2019-01-09T03:17:29.744Z,40.9
2019-01-09T03:18:20.315Z,40.9
2019-01-09T03:19:10.652Z,40.9
2019-01-09T03:20:01.094Z,40.9
2019-01-09T03:20:51.461Z,40.9
2019-01-09T03:21:41.113Z,40.9
2019-01-09T03:22:30.835Z,40.9
2019-01-09T03:23:21.293Z,40.9
2019-01-09T03:24:10.889Z,40.9
2019-01-09T03:25:01.140Z,40.9
2019-01-09T03:25:51.683Z,40.9
2019-01-09T03:26:41.252Z,40.9
2019-01-09T03:27:30.652Z,40.9
2019-01-09T03:28:21.798Z,40.9
2019-01-09T03:29:11.040Z,40.9
2019-01-09T03:30:01.230Z,40.9
2019-01-09T03:30:51.633Z,40.9
2019-01-09T03:31:41.418Z,40.9
2019-01-09T03:32:32.388Z,40.9
2019-01-09T03:33:22.449Z,40.9
2019-01-09T03:34:11.919Z,40.9
2019-01-09T03:35:02.260Z,40.9
2019-01-09T03:35:52.579Z,40.9
2019-01-09T03:36:41.537Z,40.9
2019-01-09T03:37:31.604Z,40.9
2019-01-09T03:38:21.969Z,40.9
2019-01-09T03:39:12.274Z,40.9
2019-01-09T03:40:02.698Z,40.9
2019-01-09T03:40:52.363Z,40.9
2019-01-09T03:41:42.392Z,40.9
2019-01-09T03:42:31.914Z,40.9
2019-01-09T03:43:22.045Z,40.9
2019-01-09T03:44:12.381Z,40.8
2019-01-09T03:45:02.794Z,40.8
2019-01-09T03:45:52.684Z,40.8
2019-01-09T03:46:43.459Z,40.8
2019-01-09T03:47:31.996Z,40.8
2019-01-09T03:48:22.604Z,40.8
2019-01-09T03:49:12.612Z,40.8
2019-01-09T03:50:02.117Z,40.8
2019-01-09T03:50:52.738Z,40.8
2019-01-09T03:51:43.061Z,40.8
2019-01-09T03:52:33.266Z,40.8
2019-01-09T03:53:23.396Z,40.8
2019-01-09T03:54:12.966Z,40.8
2019-01-09T03:55:03.318Z,40.8
2019-01-09T03:55:53.158Z,40.8
2019-01-09T03:56:42.898Z,40.7
2019-01-09T03:57:33.759Z,40.7
2019-01-09T03:58:23.001Z,40.7
2019-01-09T03:59:13.168Z,40.7
2019-01-09T04:00:03.860Z,40.7
2019-01-09T04:00:53.988Z,40.7
2019-01-09T04:01:43.246Z,40.8
2019-01-09T04:02:33.824Z,40.7
2019-01-09T04:03:25.934Z,40.7
2019-01-09T04:04:14.023Z,40.7
2019-01-09T04:05:04.418Z,40.7
2019-01-09T04:05:54.585Z,40.7
2019-01-09T04:06:47.292Z,40.6
2019-01-09T04:07:33.319Z,40.6
2019-01-09T04:08:24.183Z,40.6
2019-01-09T04:09:14.612Z,40.6
2019-01-09T04:10:04.735Z,40.6
2019-01-09T04:10:54.170Z,40.7
2019-01-09T04:11:43.865Z,40.7
2019-01-09T04:12:34.577Z,40.7
2019-01-09T04:13:23.523Z,40.7
2019-01-09T04:14:14.417Z,40.7
2019-01-09T04:15:04.849Z,40.7
2019-01-09T04:15:54.575Z,40.7
2019-01-09T04:16:44.403Z,40.7
2019-01-09T04:17:34.850Z,40.7
2019-01-09T04:18:24.612Z,40.8
2019-01-09T04:19:14.640Z,40.8
2019-01-09T04:20:04.996Z,40.8
2019-01-09T04:20:54.518Z,40.8
2019-01-09T04:21:44.885Z,40.8
2019-01-09T04:22:35.428Z,40.8
2019-01-09T04:23:25.484Z,40.8
2019-01-09T04:24:14.998Z,40.8
2019-01-09T04:25:04.980Z,40.7
2019-01-09T04:25:55.414Z,40.7
2019-01-09T04:26:45.525Z,40.7
2019-01-09T04:27:34.381Z,40.7
2019-01-09T04:28:25.626Z,40.7
2019-01-09T04:29:15.891Z,40.7
2019-01-09T04:30:06.008Z,40.7
2019-01-09T04:30:56.046Z,40.7
2019-01-09T04:31:45.889Z,40.7
2019-01-09T04:32:35.404Z,40.7
2019-01-09T04:33:26.023Z,40.6
2019-01-09T04:34:16.038Z,40.6
2019-01-09T04:35:06.050Z,40.6
2019-01-09T04:35:56.166Z,40.6
2019-01-09T04:36:55.573Z,40.6
2019-01-09T04:37:35.868Z,40.6
2019-01-09T04:38:25.126Z,40.6
2019-01-09T04:39:15.723Z,40.6
2019-01-09T04:40:06.235Z,40.6
2019-01-09T04:40:56.127Z,40.6
2019-01-09T04:41:45.330Z,40.6
2019-01-09T04:42:36.812Z,40.6
2019-01-09T04:43:26.553Z,40.6
2019-01-09T04:44:16.601Z,40.6
2019-01-09T04:45:05.951Z,40.6
2019-01-09T05:02:27.240Z,40.4
2019-01-09T05:03:16.334Z,40.4
2019-01-09T05:04:07.555Z,40.4
2019-01-09T05:04:56.286Z,40.4
2019-01-09T05:05:47.482Z,40.4
2019-01-09T05:06:36.841Z,40.4
2019-01-09T05:07:27.768Z,40.4
2019-01-09T05:08:17.054Z,40.4
2019-01-09T05:09:07.830Z,40.4
2019-01-09T05:09:59.298Z,40.4
2019-01-09T05:10:47.956Z,40.3
2019-01-09T05:11:37.723Z,40.3
2019-01-09T05:12:28.062Z,40.3
2019-01-09T05:13:18.064Z,40.3
2019-01-09T05:14:07.607Z,40.3
2019-01-09T05:14:58.295Z,40.3
2019-01-09T05:15:48.008Z,40.3
2019-01-09T05:16:37.851Z,40.3
2019-01-09T05:17:28.428Z,40.3
2019-01-09T05:18:18.552Z,40.3
2019-01-09T05:19:08.303Z,40.3
2019-01-09T05:19:58.024Z,40.3
2019-01-09T05:20:48.123Z,40.3
2019-01-09T05:21:38.811Z,40.3
2019-01-09T05:22:27.881Z,40.3
2019-01-09T05:23:18.298Z,40.3
2019-01-09T05:24:08.333Z,40.3
2019-01-09T05:24:58.043Z,40.2
2019-01-09T05:25:48.925Z,40.2
2019-01-09T05:26:38.430Z,40.2
2019-01-09T05:27:28.503Z,40.2
2019-01-09T05:28:19.088Z,40.2
2019-01-09T05:29:08.908Z,40.2
2019-01-09T05:29:58.627Z,40.2
2019-01-09T05:30:49.008Z,40.2
2019-01-09T05:31:39.350Z,40.2
2019-01-09T05:32:28.842Z,40.2
2019-01-09T05:33:19.710Z,40.2
2019-01-09T05:34:09.279Z,40.1
2019-01-09T05:34:58.986Z,40.1
2019-01-09T05:35:48.772Z,40.1
2019-01-09T05:36:38.887Z,40.1
2019-01-09T05:37:29.225Z,40.1
2019-01-09T05:38:19.795Z,40.1
2019-01-09T05:39:09.926Z,40.1
2019-01-09T05:39:59.854Z,40.1
2019-01-09T05:40:49.670Z,40.1
2019-01-09T05:41:39.484Z,40.1
2019-01-09T05:42:30.062Z,40.1
2019-01-09T05:43:19.541Z,40.1
2019-01-09T05:44:09.644Z,40.1
2019-01-09T05:45:02.230Z,40.1
2019-01-09T05:45:48.931Z,40.1
2019-01-09T05:46:40.626Z,40.1
2019-01-09T05:47:30.461Z,40.1
2019-01-09T05:48:20.186Z,40.1
2019-01-09T05:49:10.257Z,40
2019-01-09T05:49:59.464Z,40
2019-01-09T05:50:50.996Z,40
2019-01-09T05:51:41.019Z,40
2019-01-09T05:52:29.711Z,40
2019-01-09T05:53:19.679Z,40
2019-01-09T05:54:10.291Z,40
2019-01-09T05:55:00.049Z,40
2019-01-09T05:55:49.891Z,40
2019-01-09T05:56:40.699Z,39.9
2019-01-09T05:57:30.738Z,39.9
2019-01-09T05:58:20.515Z,39.9
2019-01-09T05:59:11.416Z,39.9
2019-01-09T06:00:00.858Z,39.9
2019-01-09T06:00:50.974Z,39.9
2019-01-09T06:01:41.048Z,39.9
2019-01-09T06:02:32.975Z,39.9
2019-01-09T06:03:21.464Z,39.9
2019-01-09T06:04:11.850Z,39.9
2019-01-09T06:05:01.250Z,39.9
2019-01-09T06:05:50.757Z,39.9
2019-01-09T06:06:40.265Z,39.9
2019-01-09T06:07:31.719Z,39.9
2019-01-09T06:08:22.078Z,39.9
2019-01-09T06:09:11.835Z,39.8
2019-01-09T06:10:01.622Z,39.8
2019-01-09T06:10:51.745Z,39.9
2019-01-09T06:11:41.445Z,39.8
2019-01-09T06:12:30.940Z,39.8
2019-01-09T06:13:21.875Z,39.8
2019-01-09T06:14:12.252Z,39.8
2019-01-09T06:15:02.208Z,39.8
2019-01-09T06:15:52.244Z,39.8
2019-01-09T06:16:42.040Z,39.8
2019-01-09T06:17:32.369Z,39.8
2019-01-09T06:18:21.876Z,39.8
2019-01-09T06:19:11.662Z,39.8
2019-01-09T06:20:02.909Z,39.8
2019-01-09T06:20:52.132Z,39.8
2019-01-09T06:21:42.190Z,39.8
2019-01-09T06:22:33.007Z,39.8
2019-01-09T06:23:22.530Z,39.8
2019-01-09T06:24:12.777Z,39.8
2019-01-09T06:25:02.896Z,39.7
2019-01-09T06:25:52.969Z,39.7
2019-01-09T06:26:42.796Z,39.7
2019-01-09T06:27:33.310Z,39.7
2019-01-09T06:28:23.469Z,39.7
2019-01-09T06:29:12.601Z,39.7
2019-01-09T06:30:02.701Z,39.7
2019-01-09T06:30:53.251Z,39.7
2019-01-09T06:31:43.599Z,39.7
2019-01-09T06:32:33.611Z,39.7
2019-01-09T06:33:23.541Z,39.6
2019-01-09T06:34:12.704Z,39.6
2019-01-09T06:35:03.579Z,39.6
2019-01-09T06:35:52.966Z,39.6
2019-01-09T06:36:43.508Z,39.6
2019-01-09T06:37:34.211Z,39.6
2019-01-09T06:38:23.487Z,39.6
2019-01-09T06:39:12.963Z,39.6
2019-01-09T06:40:03.685Z,39.6
2019-01-09T06:40:52.950Z,39.6
2019-01-09T06:41:43.951Z,39.6
2019-01-09T06:42:33.185Z,39.6
2019-01-09T06:43:24.369Z,39.6
2019-01-09T06:44:14.195Z,39.6
2019-01-09T06:45:03.504Z,39.6
2019-01-09T06:45:54.031Z,39.6
2019-01-09T06:46:43.330Z,39.6
2019-01-09T06:47:34.343Z,39.6
2019-01-09T06:48:23.677Z,39.5
2019-01-09T06:49:14.460Z,39.5
2019-01-09T06:50:04.253Z,39.6
2019-01-09T06:50:54.672Z,39.5
2019-01-09T06:51:44.697Z,39.5
2019-01-09T06:52:34.667Z,39.5
2019-01-09T06:53:25.027Z,39.5
2019-01-09T06:54:14.407Z,39.5
2019-01-09T06:55:05.804Z,39.5
2019-01-09T06:55:55.043Z,39.4
2019-01-09T06:56:44.998Z,39.4
2019-01-09T06:57:34.460Z,39.4
2019-01-09T06:58:25.208Z,39.4
2019-01-09T06:59:14.008Z,39.4
2019-01-09T07:00:05.238Z,39.4
2019-01-09T07:00:53.840Z,39.4
2019-01-09T07:01:44.542Z,39.4
2019-01-09T07:02:34.523Z,39.4
2019-01-09T07:03:24.923Z,39.4
2019-01-09T07:04:14.985Z,39.4
2019-01-09T07:05:04.398Z,39.4
2019-01-09T07:05:54.857Z,39.4
2019-01-09T07:06:45.366Z,39.4
2019-01-09T07:07:41.528Z,39.4
2019-01-09T07:08:24.905Z,39.4
2019-01-09T07:09:16.131Z,39.4
2019-01-09T07:10:07.410Z,39.4
2019-01-09T07:10:55.896Z,39.3
2019-01-09T07:11:45.395Z,39.3
2019-01-09T07:12:36.009Z,39.3
2019-01-09T07:13:25.800Z,39.3
2019-01-09T07:14:16.165Z,39.3
2019-01-09T07:15:17.690Z,39.3
2019-01-09T07:15:55.964Z,39.3
2019-01-09T07:16:45.570Z,39.3
2019-01-09T07:17:35.774Z,39.3
2019-01-09T07:18:26.137Z,39.3
2019-01-09T07:19:16.192Z,39.3
2019-01-09T07:20:06.609Z,39.3
2019-01-09T07:20:56.279Z,39.3
2019-01-09T07:21:51.350Z,39.3
2019-01-09T07:22:35.859Z,39.3
2019-01-09T07:23:28.024Z,39.3
2019-01-09T07:24:16.611Z,39.3
2019-01-09T07:25:06.871Z,39.3
2019-01-09T07:25:56.631Z,39.3
2019-01-09T07:26:47.264Z,39.2
2019-01-09T07:27:36.750Z,39.2
2019-01-09T07:28:25.689Z,39.2
2019-01-09T07:29:16.854Z,39.2
2019-01-09T07:30:07.229Z,39.2
2019-01-09T07:30:56.958Z,39.2
2019-01-09T07:31:46.764Z,39.2
2019-01-09T07:32:37.116Z,39.2
2019-01-09T07:33:26.856Z,39.2
2019-01-09T07:34:16.351Z,39.1
2019-01-09T07:35:07.357Z,39.1
2019-01-09T07:35:57.018Z,39.1
2019-01-09T07:36:47.733Z,39.1
2019-01-09T07:37:47.079Z,39.1
2019-01-09T07:38:27.738Z,39.1
2019-01-09T07:39:17.793Z,39.1
2019-01-09T07:40:07.078Z,39.1
2019-01-09T07:40:57.455Z,39.1
2019-01-09T07:41:47.931Z,39.1
2019-01-09T07:42:38.073Z,39.1
2019-01-09T07:43:27.823Z,39.1
2019-01-09T07:44:17.328Z,39.1
2019-01-09T07:45:07.916Z,39.1
2019-01-09T07:45:58.316Z,39.1
2019-01-09T07:46:48.447Z,39.1
2019-01-09T07:47:38.090Z,39.1
2019-01-09T07:48:27.872Z,39.1
2019-01-09T07:49:18.205Z,39.1
2019-01-09T07:50:08.258Z,39.1
2019-01-09T07:50:58.333Z,39
2019-01-09T07:51:48.485Z,39
2019-01-09T07:52:38.150Z,39
2019-01-09T07:53:27.747Z,39
2019-01-09T07:54:18.704Z,39
2019-01-09T07:55:08.895Z,39
2019-01-09T07:55:57.810Z,39
2019-01-09T07:56:47.872Z,39
2019-01-09T07:57:37.775Z,39
2019-01-09T07:58:28.550Z,39
2019-01-09T07:59:19.135Z,38.9
2019-01-09T08:00:08.924Z,38.9
2019-01-09T08:00:58.502Z,38.9
2019-01-09T08:01:49.096Z,38.9
2019-01-09T08:02:39.192Z,38.9
2019-01-09T08:03:28.597Z,38.9
2019-01-09T08:04:18.927Z,38.9
2019-01-09T08:05:08.994Z,38.9
2019-01-09T08:05:59.124Z,38.9
2019-01-09T08:06:49.653Z,38.9
2019-01-09T08:07:39.194Z,38.9
2019-01-09T08:08:29.501Z,38.9
2019-01-09T08:09:19.306Z,38.9
2019-01-09T08:10:08.786Z,38.9
2019-01-09T08:10:59.951Z,38.9
2019-01-09T08:11:52.427Z,38.9
2019-01-09T08:12:39.489Z,38.9
2019-01-09T08:13:29.541Z,38.9
2019-01-09T08:14:20.154Z,38.9
2019-01-09T08:15:10.203Z,38.8
2019-01-09T08:16:00.536Z,38.8
2019-01-09T08:16:50.123Z,38.8
2019-01-09T08:17:39.902Z,38.8
2019-01-09T08:18:29.929Z,38.8
2019-01-09T08:19:19.927Z,38.8
2019-01-09T08:20:10.274Z,38.8
2019-01-09T08:21:09.959Z,38.8
2019-01-09T08:21:50.383Z,38.8
2019-01-09T08:22:40.985Z,38.8
2019-01-09T08:23:30.491Z,38.8
2019-01-09T08:24:20.708Z,38.8
2019-01-09T08:25:10.210Z,38.8
2019-01-09T08:26:01.200Z,38.8
2019-01-09T08:26:50.988Z,38.8
2019-01-09T08:27:41.076Z,38.8
2019-01-09T08:28:30.556Z,38.8
2019-01-09T08:29:20.588Z,38.8
2019-01-09T08:30:11.060Z,38.8
2019-01-09T08:31:01.005Z,38.8
2019-01-09T08:31:51.063Z,38.7
2019-01-09T08:32:41.213Z,38.7
2019-01-09T08:33:30.908Z,38.7
2019-01-09T08:34:21.517Z,38.7
2019-01-09T08:35:11.660Z,38.7
2019-01-09T08:36:01.411Z,38.7
2019-01-09T08:36:51.942Z,38.7
2019-01-09T08:37:41.775Z,38.7
2019-01-09T08:38:31.503Z,38.7
2019-01-09T08:39:20.447Z,38.6
2019-01-09T08:40:11.372Z,38.6
2019-01-09T08:41:01.179Z,38.6
2019-01-09T08:41:51.705Z,38.6
2019-01-09T08:42:41.527Z,38.6
2019-01-09T08:43:31.659Z,38.6
2019-01-09T08:44:21.604Z,38.6
2019-01-09T08:45:11.949Z,38.6
2019-01-09T08:46:01.457Z,38.6
2019-01-09T08:46:52.339Z,38.6
2019-01-09T08:47:42.419Z,38.6
2019-01-09T08:48:32.191Z,38.6
2019-01-09T08:49:22.249Z,38.6
2019-01-09T08:50:12.059Z,38.6
2019-01-09T08:51:01.766Z,38.6
2019-01-09T08:51:51.844Z,38.6
2019-01-09T08:52:42.036Z,38.6
2019-01-09T08:53:31.403Z,38.6
2019-01-09T08:54:22.922Z,38.6
2019-01-09T08:55:13.175Z,38.5
2019-01-09T08:56:02.401Z,38.5
2019-01-09T08:56:52.703Z,38.5
2019-01-09T08:57:42.514Z,38.5
2019-01-09T08:58:33.478Z,38.5
2019-01-09T08:59:22.703Z,38.5
2019-01-09T09:00:13.346Z,38.5
2019-01-09T09:01:03.024Z,38.5
2019-01-09T09:16:59.078Z,38.3
2019-01-09T09:17:49.300Z,38.3
2019-01-09T09:18:39.160Z,38.3
2019-01-09T09:19:29.762Z,38.3
2019-01-09T09:20:19.626Z,38.3
2019-01-09T09:21:09.857Z,38.3
2019-01-09T09:21:59.922Z,38.3
2019-01-09T09:22:49.412Z,38.3
2019-01-09T09:23:40.002Z,38.3
2019-01-09T09:24:29.872Z,38.3
2019-01-09T09:25:19.559Z,38.3
2019-01-09T09:26:10.437Z,38.3
2019-01-09T09:27:00.246Z,38.2
2019-01-09T09:27:48.889Z,38.3
2019-01-09T09:28:39.514Z,38.3
2019-01-09T09:29:31.996Z,38.3
2019-01-09T09:30:20.509Z,38.2
2019-01-09T09:31:10.007Z,38.2
2019-01-09T09:32:00.389Z,38.2
2019-01-09T09:32:50.234Z,38.2
2019-01-09T09:33:39.129Z,38.2
2019-01-09T09:34:29.980Z,38.2
2019-01-09T09:35:20.791Z,38.2
2019-01-09T09:36:10.572Z,38.2
2019-01-09T09:37:00.954Z,38.2
2019-01-09T09:37:50.711Z,38.1
2019-01-09T09:38:40.791Z,38.1
2019-01-09T09:39:31.098Z,38.1
2019-01-09T09:40:20.842Z,38.1
2019-01-09T09:41:11.181Z,38.1
2019-01-09T09:42:00.158Z,38.1
2019-01-09T09:42:50.849Z,38.1
2019-01-09T09:43:41.104Z,38.1
2019-01-09T09:44:31.501Z,38.1
2019-01-09T09:45:21.203Z,38.1
2019-01-09T09:46:11.294Z,38.1
2019-01-09T09:47:01.686Z,38.1
2019-01-09T09:47:51.099Z,38.1
2019-01-09T09:48:41.173Z,38.1
2019-01-09T09:49:31.758Z,38.1
2019-01-09T09:50:21.828Z,38.1
2019-01-09T09:51:10.610Z,38.1
2019-01-09T09:52:01.387Z,38.1
2019-01-09T09:52:51.438Z,38.1
2019-01-09T09:53:41.468Z,38.1
2019-01-09T09:54:32.458Z,38
2019-01-09T09:55:21.057Z,38
2019-01-09T09:56:11.660Z,38
2019-01-09T09:57:01.682Z,38
2019-01-09T09:57:52.383Z,38
2019-01-09T09:58:41.815Z,38
2019-01-09T09:59:32.725Z,38
2019-01-09T10:00:21.943Z,37.9
2019-01-09T10:01:12.236Z,38
2019-01-09T10:02:01.482Z,38
2019-01-09T10:02:52.136Z,38
2019-01-09T10:03:42.700Z,38
2019-01-09T10:04:32.741Z,37.9
2019-01-09T10:05:22.850Z,37.9
2019-01-09T10:06:12.322Z,37.9
2019-01-09T10:07:02.627Z,37.9
2019-01-09T10:07:52.424Z,37.9
2019-01-09T10:08:43.317Z,37.9
2019-01-09T10:09:32.545Z,37.9
2019-01-09T10:10:23.164Z,37.9
2019-01-09T10:11:12.764Z,37.9
2019-01-09T10:12:02.953Z,37.9
2019-01-09T10:12:52.491Z,37.9
2019-01-09T10:13:42.532Z,37.9
2019-01-09T10:14:32.579Z,37.9
2019-01-09T10:15:23.480Z,37.9
2019-01-09T10:16:12.723Z,37.9
2019-01-09T10:17:03.109Z,37.9
2019-01-09T10:17:53.359Z,37.9
2019-01-09T10:18:42.041Z,37.9
2019-01-09T10:19:33.181Z,37.9
2019-01-09T10:20:23.279Z,37.8
2019-01-09T10:21:13.394Z,37.9
2019-01-09T10:22:03.961Z,37.8
2019-01-09T10:22:54.251Z,37.8
2019-01-09T10:23:43.901Z,37.8
2019-01-09T10:24:34.076Z,37.8
2019-01-09T10:25:24.233Z,37.8
2019-01-09T10:26:13.343Z,37.8
2019-01-09T10:27:03.802Z,37.8
2019-01-09T10:27:54.461Z,37.8
2019-01-09T10:28:43.532Z,37.8
2019-01-09T10:29:33.845Z,37.8
2019-01-09T10:30:23.793Z,37.8
2019-01-09T10:31:13.701Z,37.8
2019-01-09T10:32:04.863Z,37.8
2019-01-09T10:32:54.473Z,37.8
2019-01-09T10:33:44.421Z,37.8
2019-01-09T10:34:34.763Z,37.8
2019-01-09T10:35:24.897Z,37.8
2019-01-09T10:36:14.925Z,37.8
2019-01-09T10:37:03.598Z,37.8
2019-01-09T10:37:55.256Z,37.7
2019-01-09T10:38:47.091Z,37.8
2019-01-09T10:39:35.398Z,37.7
2019-01-09T10:40:25.155Z,37.7
2019-01-09T10:41:14.659Z,37.7
2019-01-09T10:42:05.070Z,37.7
2019-01-09T10:42:54.635Z,37.7
2019-01-09T10:43:44.810Z,37.7
2019-01-09T10:44:36.990Z,37.7
2019-01-09T10:45:24.720Z,37.7
2019-01-09T10:46:15.295Z,37.7
2019-01-09T10:47:04.552Z,37.6
2019-01-09T10:47:55.147Z,37.6
2019-01-09T10:48:45.707Z,37.6
2019-01-09T10:49:35.552Z,37.6
2019-01-09T10:50:25.609Z,37.6
2019-01-09T10:51:14.664Z,37.6
2019-01-09T10:52:04.999Z,37.6
2019-01-09T10:52:55.737Z,37.6
2019-01-09T10:53:45.744Z,37.6
2019-01-09T10:54:35.557Z,37.6
2019-01-09T10:55:26.466Z,37.6
2019-01-09T10:56:15.411Z,37.6
2019-01-09T10:57:05.444Z,37.6
2019-01-09T10:57:55.492Z,37.6
2019-01-09T10:58:46.082Z,37.6
2019-01-09T10:59:36.129Z,37.6
2019-01-09T11:00:26.197Z,37.6
2019-01-09T11:01:15.961Z,37.6
2019-01-09T11:02:06.871Z,37.6
2019-01-09T11:02:56.375Z,37.6
2019-01-09T11:03:45.865Z,37.6
2019-01-09T11:04:36.815Z,37.5
2019-01-09T11:05:26.626Z,37.5
2019-01-09T11:06:19.354Z,37.5
2019-01-09T11:07:06.668Z,37.5
2019-01-09T11:07:57.068Z,37.5
2019-01-09T11:08:52.455Z,37.5
2019-01-09T11:09:36.820Z,37.5
2019-01-09T11:10:26.856Z,37.5
2019-01-09T11:11:16.068Z,37.5
2019-01-09T11:12:07.332Z,37.4
2019-01-09T11:12:57.310Z,37.5
2019-01-09T11:13:46.789Z,37.4
2019-01-09T11:14:36.860Z,37.4
2019-01-09T11:15:26.938Z,37.4
2019-01-09T11:16:17.248Z,37.4
2019-01-09T11:17:07.290Z,37.4
2019-01-09T11:17:57.372Z,37.4
2019-01-09T11:18:47.342Z,37.4
2019-01-09T11:19:37.198Z,37.4
2019-01-09T11:20:26.964Z,37.4
2019-01-09T11:21:17.852Z,37.4
2019-01-09T11:22:07.787Z,37.4
2019-01-09T11:22:57.714Z,37.4
2019-01-09T11:23:46.997Z,37.4
2019-01-09T11:24:37.334Z,37.4
2019-01-09T11:25:28.482Z,37.4
2019-01-09T11:26:19.427Z,37.4
2019-01-09T11:27:08.455Z,37.4
2019-01-09T11:27:58.060Z,37.4
2019-01-09T11:28:48.793Z,37.4
2019-01-09T11:29:38.746Z,37.4
2019-01-09T11:30:28.847Z,37.4
2019-01-09T11:31:18.236Z,37.4
2019-01-09T11:32:11.017Z,37.3
2019-01-09T11:32:57.072Z,37.3
2019-01-09T11:33:47.315Z,37.3
2019-01-09T11:34:38.459Z,37.3
2019-01-09T11:35:29.105Z,37.3
2019-01-09T11:36:18.864Z,37.3
2019-01-09T11:37:08.899Z,37.3
2019-01-09T11:37:58.958Z,37.3
2019-01-09T11:38:56.615Z,37.3
2019-01-09T11:39:38.527Z,37.3
2019-01-09T11:40:28.896Z,37.3
2019-01-09T11:41:18.655Z,37.3
2019-01-09T11:42:09.262Z,37.3
2019-01-09T11:42:59.304Z,37.3
2019-01-09T11:43:49.081Z,37.3
2019-01-09T11:44:39.288Z,37.3
2019-01-09T11:45:28.919Z,37.3
2019-01-09T11:46:19.236Z,37.3
2019-01-09T11:47:09.318Z,37.3
2019-01-09T11:47:58.711Z,37.3
2019-01-09T11:48:48.324Z,37.2
2019-01-09T11:49:39.853Z,37.3
2019-01-09T11:50:30.183Z,37.3
2019-01-09T11:51:19.335Z,37.3
2019-01-09T11:52:09.620Z,37.2
2019-01-09T11:52:59.410Z,37.3
2019-01-09T11:53:49.726Z,37.2
2019-01-09T11:54:42.212Z,37.2
2019-01-09T11:55:29.961Z,37.2
2019-01-09T11:56:20.475Z,37.2
2019-01-09T11:57:09.428Z,37.2
2019-01-09T11:58:00.025Z,37.2
2019-01-09T11:58:50.070Z,37.2
2019-01-09T11:59:39.943Z,37.1
2019-01-09T12:00:30.213Z,37.1
2019-01-09T12:01:20.253Z,37.1
2019-01-09T12:02:10.014Z,37.1
2019-01-09T12:03:00.115Z,37.1
2019-01-09T12:03:50.965Z,37.1
2019-01-09T12:04:40.364Z,37.1
2019-01-09T12:05:29.960Z,37.1
2019-01-09T12:06:20.427Z,37.1
2019-01-09T12:07:10.913Z,37.1
2019-01-09T12:08:00.397Z,37.1
2019-01-09T12:08:53.337Z,37.1
2019-01-09T12:09:40.781Z,37.1
2019-01-09T12:10:35.735Z,37.1
2019-01-09T12:11:20.937Z,37.1
2019-01-09T12:12:10.996Z,37.1
2019-01-09T12:13:00.762Z,37.1